createdAt,value
2017-05-08T00:00:18.705Z,28.8
2017-05-08T00:01:18.881Z,28.8
2017-05-08T00:02:19.699Z,28.8
2017-05-08T00:03:19.766Z,28.9
2017-05-08T00:04:19.786Z,28.8
2017-05-08T00:05:18.901Z,28.8
2017-05-08T00:06:18.960Z,28.8
2017-05-08T00:07:20.262Z,28.8
2017-05-08T00:08:20.072Z,28.8
2017-05-08T00:09:19.129Z,28.9
2017-05-08T00:10:19.085Z,28.9
2017-05-08T00:11:19.241Z,28.9
2017-05-08T00:12:19.303Z,28.9
2017-05-08T00:13:19.536Z,28.9
2017-05-08T00:14:20.380Z,28.9
2017-05-08T00:15:20.534Z,28.8
2017-05-08T00:16:19.450Z,28.9
2017-05-08T00:17:19.619Z,28.9
2017-05-08T00:18:19.704Z,28.8
2017-05-08T00:19:21.046Z,28.9
2017-05-08T00:20:19.667Z,28.9
2017-05-08T00:21:20.899Z,28.9
2017-05-08T00:22:19.817Z,28.8
2017-05-08T00:23:20.967Z,28.9
2017-05-08T00:24:19.965Z,28.9
2017-05-08T00:25:20.297Z,28.9
2017-05-08T00:26:20.039Z,28.9
2017-05-08T00:27:19.983Z,28.8
2017-05-08T00:28:21.161Z,28.9
2017-05-08T00:29:21.236Z,28.9
2017-05-08T00:30:21.242Z,28.9
2017-05-08T00:31:20.554Z,28.9
2017-05-08T00:32:20.324Z,28.9
2017-05-08T00:33:21.310Z,28.9
2017-05-08T00:34:20.357Z,28.8
2017-05-08T00:35:21.452Z,28.9
2017-05-08T00:36:20.356Z,28.9
2017-05-08T00:37:20.695Z,28.9
2017-05-08T00:38:20.502Z,28.9
2017-05-08T00:39:21.708Z,28.9
2017-05-08T00:40:20.712Z,28.9
2017-05-08T00:41:20.726Z,28.9
2017-05-08T00:42:20.772Z,28.9
2017-05-08T00:43:21.157Z,28.9
2017-05-08T00:44:20.823Z,28.9
2017-05-08T00:45:22.040Z,28.9
2017-05-08T00:46:21.981Z,28.9
2017-05-08T00:47:22.056Z,28.9
2017-05-08T00:48:22.184Z,28.9
2017-05-08T00:49:21.361Z,28.9
2017-05-08T00:50:21.216Z,28.9
2017-05-08T00:51:21.280Z,28.9
2017-05-08T00:52:21.372Z,28.9
2017-05-08T00:53:22.505Z,28.9
2017-05-08T00:54:22.499Z,28.9
2017-05-08T00:55:22.511Z,28.9
2017-05-08T00:56:22.695Z,28.9
2017-05-08T00:57:21.723Z,28.9
2017-05-08T00:58:21.802Z,28.9
2017-05-08T00:59:22.941Z,28.9
2017-05-08T01:00:22.861Z,28.9
2017-05-08T01:01:22.208Z,28.9
2017-05-08T01:02:21.878Z,28.9
2017-05-08T01:03:22.041Z,28.9
2017-05-08T01:04:22.058Z,28.9
2017-05-08T01:05:22.047Z,28.9
2017-05-08T01:06:22.078Z,28.9
2017-05-08T01:07:22.351Z,28.9
2017-05-08T01:08:22.193Z,28.9
2017-05-08T01:09:22.169Z,28.9
2017-05-08T01:10:22.192Z,28.9
2017-05-08T01:11:23.384Z,28.9
2017-05-08T01:12:23.415Z,28.9
2017-05-08T01:13:22.671Z,28.9
2017-05-08T01:14:22.573Z,28.9
2017-05-08T01:15:22.532Z,28.9
2017-05-08T01:16:22.693Z,28.9
2017-05-08T01:17:23.786Z,28.9
2017-05-08T01:18:22.779Z,28.9
2017-05-08T01:19:23.030Z,28.9
2017-05-08T01:20:22.918Z,28.9
2017-05-08T01:21:22.975Z,28.9
2017-05-08T01:22:24.030Z,28.9
2017-05-08T01:23:23.088Z,28.9
2017-05-08T01:24:23.046Z,28.9
2017-05-08T01:25:24.195Z,28.9
2017-05-08T01:26:23.241Z,28.9
2017-05-08T01:27:24.396Z,28.9
2017-05-08T01:28:23.306Z,28.9
2017-05-08T01:29:23.236Z,28.9
2017-05-08T01:30:23.331Z,28.9
2017-05-08T01:31:24.742Z,28.9
2017-05-08T01:32:24.544Z,28.9
2017-05-08T01:33:24.600Z,28.9
2017-05-08T01:34:23.589Z,28.9
2017-05-08T01:35:24.639Z,28.9
2017-05-08T01:36:23.555Z,28.9
2017-05-08T01:37:24.011Z,28.9
2017-05-08T01:38:24.808Z,28.9
2017-05-08T01:39:23.750Z,28.9
2017-05-08T01:40:24.953Z,28.9
2017-05-08T01:41:23.824Z,28.9
2017-05-08T01:42:24.926Z,28.9
2017-05-08T01:43:24.340Z,28.9
2017-05-08T01:44:24.024Z,28.9
2017-05-08T01:45:25.091Z,28.9
2017-05-08T01:46:25.159Z,28.9
2017-05-08T01:47:25.224Z,28.9
2017-05-08T01:48:25.398Z,28.9
2017-05-08T01:49:24.692Z,28.9
2017-05-08T01:50:25.534Z,28.9
2017-05-08T01:51:24.409Z,28.9
2017-05-08T01:52:25.657Z,28.9
2017-05-08T01:53:25.717Z,28.9
2017-05-08T01:54:25.786Z,28.9
2017-05-08T01:55:25.086Z,28.9
2017-05-08T01:56:24.868Z,28.9
2017-05-08T01:57:24.827Z,28.9
2017-05-08T01:58:26.066Z,28.9
2017-05-08T01:59:24.969Z,28.9
2017-05-08T02:00:26.177Z,28.9
2017-05-08T02:01:25.349Z,28.9
2017-05-08T02:02:26.195Z,28.9
2017-05-08T02:03:25.237Z,28.9
2017-05-08T02:04:26.206Z,28.9
2017-05-08T02:05:26.341Z,28.9
2017-05-08T02:06:26.375Z,28.9
2017-05-08T02:07:26.722Z,28.9
2017-05-08T02:08:26.552Z,28.9
2017-05-08T02:09:25.416Z,28.9
2017-05-08T02:10:26.649Z,28.9
2017-05-08T02:11:25.513Z,28.9
2017-05-08T02:12:26.730Z,28.9
2017-05-08T02:13:25.935Z,28.9
2017-05-08T02:14:25.720Z,28.9
2017-05-08T02:15:25.815Z,28.9
2017-05-08T02:16:26.838Z,28.9
2017-05-08T02:17:26.966Z,28.9
2017-05-08T02:18:26.981Z,28.9
2017-05-08T02:19:27.197Z,28.9
2017-05-08T02:20:26.070Z,28.9
2017-05-08T02:21:27.742Z,28.9
2017-05-08T02:22:26.091Z,28.9
2017-05-08T02:23:26.107Z,28.9
2017-05-08T02:24:27.379Z,28.9
2017-05-08T02:25:26.518Z,28.9
2017-05-08T02:26:27.365Z,28.9
2017-05-08T02:27:27.448Z,28.9
2017-05-08T02:28:26.343Z,28.9
2017-05-08T02:29:27.536Z,28.9
2017-05-08T02:30:27.495Z,28.9
2017-05-08T02:31:27.877Z,28.9
2017-05-08T02:32:27.524Z,28.9
2017-05-08T02:33:27.672Z,28.9
2017-05-08T02:34:27.618Z,28.9
2017-05-08T02:35:27.710Z,28.9
2017-05-08T02:36:27.804Z,28.9
2017-05-08T02:37:27.178Z,28.9
2017-05-08T02:38:27.828Z,28.9
2017-05-08T02:39:26.789Z,28.9
2017-05-08T02:40:27.610Z,28.9
2017-05-08T02:41:27.948Z,28.9
2017-05-08T02:42:28.046Z,28.9
2017-05-08T02:43:27.339Z,28.9
2017-05-08T02:44:28.078Z,28.9
2017-05-08T02:45:28.678Z,28.9
2017-05-08T02:46:28.204Z,28.9
2017-05-08T02:47:27.067Z,28.9
2017-05-08T02:48:28.290Z,28.9
2017-05-08T02:49:28.547Z,28.9
2017-05-08T02:50:27.367Z,28.9
2017-05-08T02:51:27.808Z,28.9
2017-05-08T02:52:27.380Z,28.9
2017-05-08T02:53:28.443Z,28.9
2017-05-08T02:54:28.483Z,28.9
2017-05-08T02:55:28.801Z,28.9
2017-05-08T02:56:29.842Z,28.9
2017-05-08T02:57:28.650Z,28.9
2017-05-08T02:58:28.745Z,28.9
2017-05-08T02:59:28.713Z,28.9
2017-05-08T03:00:27.776Z,28.9
2017-05-08T03:01:29.462Z,28.9
2017-05-08T03:02:27.800Z,28.9
2017-05-08T03:03:29.039Z,28.9
2017-05-08T03:04:29.119Z,28.9
2017-05-08T03:05:28.105Z,28.9
2017-05-08T03:06:28.153Z,28.9
2017-05-08T03:07:28.408Z,28.9
2017-05-08T03:08:29.265Z,28.9
2017-05-08T03:09:29.335Z,28.9
2017-05-08T03:10:28.240Z,28.9
2017-05-08T03:11:28.427Z,28.9
2017-05-08T03:12:29.468Z,28.9
2017-05-08T03:13:29.821Z,28.9
2017-05-08T03:14:28.471Z,28.9
2017-05-08T03:15:28.616Z,28.9
2017-05-08T03:16:28.659Z,28.9
2017-05-08T03:17:29.720Z,28.9
2017-05-08T03:18:28.693Z,28.9
2017-05-08T03:19:29.035Z,28.9
2017-05-08T03:20:28.887Z,28.9
2017-05-08T03:21:28.864Z,28.9
2017-05-08T03:22:30.095Z,28.9
2017-05-08T03:23:30.050Z,28.9
2017-05-08T03:24:30.226Z,28.9
2017-05-08T03:25:31.297Z,28.9
2017-05-08T03:26:29.180Z,28.9
2017-05-08T03:27:30.382Z,28.9
2017-05-08T03:28:29.996Z,28.9
2017-05-08T03:29:29.446Z,28.9
2017-05-08T03:30:30.523Z,28.9
2017-05-08T03:31:29.725Z,28.9
2017-05-08T03:32:29.628Z,28.9
2017-05-08T03:33:30.670Z,28.9
2017-05-08T03:34:30.742Z,28.9
2017-05-08T03:35:30.789Z,28.9
2017-05-08T03:36:30.259Z,28.9
2017-05-08T03:37:31.145Z,28.9
2017-05-08T03:38:30.830Z,28.9
2017-05-08T03:39:29.968Z,28.9
2017-05-08T03:40:31.011Z,28.9
2017-05-08T03:41:31.152Z,28.9
2017-05-08T03:42:31.743Z,28.9
2017-05-08T03:43:31.494Z,28.9
2017-05-08T03:44:31.220Z,28.9
2017-05-08T03:45:30.193Z,28.9
2017-05-08T03:46:31.266Z,28.9
2017-05-08T03:47:31.400Z,28.9
2017-05-08T03:48:31.370Z,28.9
2017-05-08T03:49:31.717Z,28.9
2017-05-08T03:50:30.534Z,28.9
2017-05-08T03:51:31.553Z,28.9
2017-05-08T03:52:30.548Z,28.9
2017-05-08T03:53:30.708Z,28.9
2017-05-08T03:54:31.687Z,28.9
2017-05-08T03:55:32.010Z,28.9
2017-05-08T03:56:32.352Z,28.9
2017-05-08T03:57:30.699Z,28.9
2017-05-08T03:58:31.864Z,28.9
2017-05-08T03:59:30.825Z,28.9
2017-05-08T04:00:30.877Z,28.9
2017-05-08T04:01:31.137Z,28.9
2017-05-08T04:02:30.900Z,28.9
2017-05-08T04:03:32.033Z,28.9
2017-05-08T04:04:30.970Z,28.9
2017-05-08T04:05:30.998Z,28.9
2017-05-08T04:06:31.101Z,28.9
2017-05-08T04:07:32.554Z,28.9
2017-05-08T04:08:31.290Z,28.9
2017-05-08T04:09:31.380Z,28.9
2017-05-08T04:10:32.436Z,28.9
2017-05-08T04:11:32.453Z,28.9
2017-05-08T04:12:32.488Z,28.9
2017-05-08T04:13:32.947Z,28.9
2017-05-08T04:14:32.664Z,29
2017-05-08T04:15:32.768Z,29.2
2017-05-08T04:16:31.655Z,29.4
2017-05-08T04:17:31.747Z,29.7
2017-05-08T04:18:32.935Z,29.9
2017-05-08T04:19:32.224Z,30.2
2017-05-08T04:20:31.924Z,30.5
2017-05-08T04:21:32.034Z,30.8
2017-05-08T04:22:33.070Z,31
2017-05-08T04:23:32.662Z,31.2
2017-05-08T04:24:33.129Z,31.4
2017-05-08T04:25:32.502Z,31.6
2017-05-08T04:26:33.166Z,31.8
2017-05-08T04:27:32.106Z,31.9
2017-05-08T04:28:32.197Z,32.1
2017-05-08T04:29:33.343Z,32.2
2017-05-08T04:30:33.449Z,32.3
2017-05-08T04:31:32.798Z,32
2017-05-08T04:32:33.609Z,31.7
2017-05-08T04:33:33.713Z,31.5
2017-05-08T04:34:33.743Z,31.2
2017-05-08T04:35:32.754Z,31.1
2017-05-08T04:36:34.379Z,31
2017-05-08T04:37:33.181Z,30.8
2017-05-08T04:38:33.906Z,30.7
2017-05-08T04:39:32.923Z,30.7
2017-05-08T04:40:34.070Z,30.6
2017-05-08T04:41:34.151Z,30.6
2017-05-08T04:42:34.221Z,30.5
2017-05-08T04:43:33.430Z,30.4
2017-05-08T04:44:33.286Z,30.4
2017-05-08T04:45:34.290Z,30.3
2017-05-08T04:46:34.288Z,30.3
2017-05-08T04:47:35.613Z,30.2
2017-05-08T04:48:34.329Z,30.1
2017-05-08T04:49:34.754Z,30.1
2017-05-08T04:50:34.418Z,30.1
2017-05-08T04:51:35.163Z,30.2
2017-05-08T04:52:33.491Z,30.1
2017-05-08T04:53:34.649Z,30.1
2017-05-08T04:54:34.324Z,30.1
2017-05-08T04:55:35.679Z,30.1
2017-05-08T04:56:33.732Z,30.1
2017-05-08T04:57:34.479Z,30
2017-05-08T04:58:35.488Z,30
2017-05-08T04:59:33.881Z,30
2017-05-08T05:00:35.619Z,30
2017-05-08T05:01:34.310Z,30
2017-05-08T05:02:35.197Z,30
2017-05-08T05:03:35.851Z,30
2017-05-08T05:04:34.083Z,30
2017-05-08T05:05:34.123Z,30
2017-05-08T05:06:34.325Z,30
2017-05-08T05:07:34.695Z,29.9
2017-05-08T05:08:34.293Z,29.9
2017-05-08T05:09:35.400Z,29.9
2017-05-08T05:10:34.368Z,29.9
2017-05-08T05:11:34.360Z,29.8
2017-05-08T05:12:35.598Z,29.8
2017-05-08T05:13:43.598Z,29.8
2017-05-08T05:14:35.715Z,29.7
2017-05-08T05:15:36.206Z,29.6
2017-05-08T05:16:35.728Z,29.6
2017-05-08T05:17:35.766Z,29.6
2017-05-08T05:18:35.472Z,29.6
2017-05-08T05:19:35.038Z,29.6
2017-05-08T05:20:38.907Z,29.6
2017-05-08T05:21:35.992Z,29.6
2017-05-08T05:22:34.955Z,29.7
2017-05-08T05:23:35.108Z,29.7
2017-05-08T05:24:36.239Z,29.7
2017-05-08T05:25:36.590Z,29.7
2017-05-08T05:26:38.307Z,29.8
2017-05-08T05:27:35.369Z,29.8
2017-05-08T05:28:36.061Z,29.8
2017-05-08T05:29:35.501Z,29.8
2017-05-08T05:30:35.613Z,29.8
2017-05-08T05:31:37.646Z,29.8
2017-05-08T05:32:37.039Z,29.8
2017-05-08T05:33:36.516Z,29.9
2017-05-08T05:34:36.427Z,29.9
2017-05-08T05:35:36.549Z,30
2017-05-08T05:36:36.059Z,30
2017-05-08T05:37:36.987Z,30.1
2017-05-08T05:38:36.177Z,30
2017-05-08T05:39:37.348Z,30
2017-05-08T05:40:37.497Z,30
2017-05-08T05:41:36.909Z,30.1
2017-05-08T05:42:37.084Z,30.1
2017-05-08T05:43:36.685Z,30.1
2017-05-08T05:44:36.385Z,30.1
2017-05-08T05:45:36.474Z,30.1
2017-05-08T05:46:37.562Z,30.1
2017-05-08T05:47:36.567Z,30.1
2017-05-08T05:48:38.342Z,30.1
2017-05-08T05:49:38.089Z,30.1
2017-05-08T05:50:37.822Z,30.1
2017-05-08T05:51:37.800Z,30.1
2017-05-08T05:52:36.778Z,30.2
2017-05-08T05:53:36.911Z,30.2
2017-05-08T05:54:36.976Z,30.2
2017-05-08T05:55:38.328Z,30.2
2017-05-08T05:56:38.192Z,30.3
2017-05-08T05:57:38.267Z,30.2
2017-05-08T05:58:37.777Z,30.2
2017-05-08T05:59:37.281Z,30.2
2017-05-08T06:00:38.548Z,30.2
2017-05-08T06:01:38.828Z,30.1
2017-05-08T06:02:47.303Z,30.1
2017-05-08T06:03:38.071Z,30.1
2017-05-08T06:04:38.511Z,30.1
2017-05-08T06:05:41.149Z,30.1
2017-05-08T06:06:38.658Z,30
2017-05-08T06:07:39.035Z,30
2017-05-08T06:08:40.082Z,30
2017-05-08T06:09:39.447Z,30
2017-05-08T06:10:39.590Z,29.9
2017-05-08T06:11:38.619Z,29.9
2017-05-08T06:12:39.609Z,29.9
2017-05-08T06:13:38.233Z,29.9
2017-05-08T06:14:39.050Z,29.8
2017-05-08T06:15:42.521Z,29.8
2017-05-08T06:16:38.572Z,29.8
2017-05-08T06:17:39.417Z,29.8
2017-05-08T06:18:40.894Z,29.8
2017-05-08T06:19:40.935Z,29.9
2017-05-08T06:20:39.369Z,29.9
2017-05-08T06:21:38.431Z,29.9
2017-05-08T06:22:39.020Z,30
2017-05-08T06:23:39.626Z,30.1
2017-05-08T06:24:38.543Z,30.1
2017-05-08T06:25:39.386Z,30.1
2017-05-08T06:26:41.014Z,30.1
2017-05-08T06:27:43.027Z,30.1
2017-05-08T06:28:42.011Z,30
2017-05-08T06:29:41.318Z,30
2017-05-08T06:30:40.658Z,30
2017-05-08T06:31:40.248Z,30
2017-05-08T06:32:40.601Z,29.9
2017-05-08T06:33:40.750Z,29.9
2017-05-08T06:34:40.038Z,29.9
2017-05-08T06:35:42.346Z,29.9
2017-05-08T06:36:40.706Z,29.9
2017-05-08T06:37:40.623Z,29.9
2017-05-08T06:38:40.940Z,30
2017-05-08T06:39:39.814Z,30
2017-05-08T06:40:41.682Z,29.9
2017-05-08T06:41:44.192Z,29.9
2017-05-08T06:42:40.951Z,29.9
2017-05-08T06:43:41.666Z,30
2017-05-08T06:44:40.937Z,30.1
2017-05-08T06:45:43.227Z,30.1
2017-05-08T06:46:40.677Z,30.2
2017-05-08T06:47:40.469Z,30.2
2017-05-08T06:48:40.364Z,30.2
2017-05-08T06:49:42.267Z,30.3
2017-05-08T06:50:43.738Z,30.2
2017-05-08T06:51:41.800Z,30.2
2017-05-08T06:52:43.001Z,30.3
2017-05-08T06:53:41.707Z,30.3
2017-05-08T06:54:40.869Z,30.4
2017-05-08T06:55:40.616Z,30.4
2017-05-08T06:56:42.400Z,30.5
2017-05-08T06:57:45.085Z,30.6
2017-05-08T06:58:46.330Z,30.6
2017-05-08T06:59:41.535Z,30.6
2017-05-08T07:00:41.272Z,30.7
2017-05-08T07:01:49.953Z,30.7
2017-05-08T07:02:42.543Z,30.6
2017-05-08T07:03:40.785Z,30.6
2017-05-08T07:04:41.462Z,30.7
2017-05-08T07:05:42.577Z,30.7
2017-05-08T07:06:42.207Z,30.7
2017-05-08T07:07:44.636Z,30.7
2017-05-08T07:08:49.780Z,30.8
2017-05-08T07:11:53.054Z,30.9
2017-05-08T07:12:47.257Z,30.9
2017-05-08T07:13:45.709Z,30.9
2017-05-08T07:14:42.249Z,31
2017-05-08T07:15:44.026Z,31
2017-05-08T07:16:43.000Z,31
2017-05-08T07:17:43.061Z,31
2017-05-08T07:18:41.899Z,31
2017-05-08T07:19:42.365Z,31
2017-05-08T07:20:42.867Z,31.1
2017-05-08T07:21:42.555Z,31.1
2017-05-08T07:22:41.561Z,31.1
2017-05-08T07:23:42.563Z,31.2
2017-05-08T07:24:42.426Z,31.2
2017-05-08T07:25:44.215Z,31.3
2017-05-08T07:26:42.494Z,31.3
2017-05-08T07:27:42.504Z,31.2
2017-05-08T07:28:48.249Z,31.2
2017-05-08T07:29:43.078Z,31.3
2017-05-08T07:30:43.989Z,31.3
2017-05-08T07:31:42.061Z,31.3
2017-05-08T07:32:44.515Z,31.4
2017-05-08T07:33:44.898Z,31.4
2017-05-08T07:34:43.362Z,31.4
2017-05-08T07:35:44.620Z,31.4
2017-05-08T07:36:43.648Z,31.4
2017-05-08T07:37:42.910Z,31.3
2017-05-08T07:38:44.274Z,31.3
2017-05-08T07:39:45.921Z,31.3
2017-05-08T07:40:44.367Z,31.3
2017-05-08T07:41:46.764Z,31.3
2017-05-08T07:42:44.315Z,31.2
2017-05-08T07:43:45.129Z,31.3
2017-05-08T07:44:43.735Z,31.3
2017-05-08T07:45:43.434Z,31.3
2017-05-08T07:46:43.435Z,31.2
2017-05-08T07:47:45.143Z,31.2
2017-05-08T07:48:44.216Z,31.2
2017-05-08T07:49:43.548Z,31.2
2017-05-08T07:50:44.171Z,31.3
2017-05-08T07:51:47.221Z,31.2
2017-05-08T07:52:44.200Z,31.2
2017-05-08T07:53:44.741Z,31.2
2017-05-08T07:54:52.337Z,31.2
2017-05-08T07:55:52.580Z,31.1
2017-05-08T07:56:53.473Z,31.1
2017-05-08T07:57:44.418Z,31
2017-05-08T07:58:44.627Z,31
2017-05-08T07:59:43.335Z,30.9
2017-05-08T08:00:44.423Z,31
2017-05-08T08:01:43.400Z,31.1
2017-05-08T08:02:43.916Z,31
2017-05-08T08:03:49.201Z,30.9
2017-05-08T08:04:46.525Z,30.9
2017-05-08T08:05:46.732Z,30.8
2017-05-08T08:06:46.958Z,30.7
2017-05-08T08:07:45.748Z,30.8
2017-05-08T08:08:45.978Z,30.7
2017-05-08T08:14:48.403Z,30.6
2017-05-08T08:15:47.184Z,30.5
2017-05-08T08:16:45.877Z,30.5
2017-05-08T08:17:51.269Z,30.5
2017-05-08T08:18:48.834Z,30.5
2017-05-08T08:19:50.083Z,30.4
2017-05-08T08:20:52.980Z,30.3
2017-05-08T08:21:48.434Z,30.3
2017-05-08T08:22:47.525Z,30.3
2017-05-08T08:23:48.316Z,30.3
2017-05-08T08:24:46.588Z,30.3
2017-05-08T08:25:49.676Z,30.2
2017-05-08T08:26:49.848Z,30.2
2017-05-08T08:27:51.965Z,30.1
2017-05-08T08:28:50.325Z,30.1
2017-05-08T08:29:50.443Z,29.9
2017-05-08T08:30:48.620Z,29.8
2017-05-08T08:31:48.045Z,29.8
2017-05-08T08:32:48.282Z,29.7
2017-05-08T08:33:44.997Z,29.7
2017-05-08T08:34:48.047Z,29.6
2017-05-08T08:35:47.061Z,29.4
2017-05-08T08:36:48.486Z,29.3
2017-05-08T08:37:50.933Z,29.2
2017-05-08T08:38:48.120Z,29.1
2017-05-08T08:39:49.479Z,29
2017-05-08T08:40:48.123Z,29
2017-05-08T08:41:47.253Z,28.9
2017-05-08T08:42:51.145Z,28.9
2017-05-08T08:43:50.654Z,28.8
2017-05-08T08:44:48.927Z,28.7
2017-05-08T08:46:49.741Z,28.6
2017-05-08T08:47:48.744Z,28.6
2017-05-08T08:48:49.087Z,28.6
2017-05-08T08:49:47.048Z,28.5
2017-05-08T08:50:47.349Z,28.5
2017-05-08T08:51:50.909Z,28.4
2017-05-08T08:52:50.541Z,28.4
2017-05-08T08:53:54.594Z,28.4
2017-05-08T08:54:49.041Z,28.4
2017-05-08T08:55:50.662Z,28.4
2017-05-08T08:56:53.181Z,28.4
2017-05-08T08:57:52.605Z,28.3
2017-05-08T08:58:55.001Z,28.3
2017-05-08T08:59:52.099Z,28.3
2017-05-08T09:00:54.010Z,28.3
2017-05-08T09:01:53.077Z,28.3
2017-05-08T09:02:51.299Z,28.2
2017-05-08T09:03:50.237Z,28.2
2017-05-08T09:04:55.941Z,28.1
2017-05-08T09:05:54.405Z,28.1
2017-05-08T09:06:49.271Z,28
2017-05-08T09:07:51.107Z,27.9
2017-05-08T09:09:52.195Z,27.9
2017-05-08T09:10:52.388Z,27.9
2017-05-08T09:11:50.142Z,27.8
2017-05-08T09:12:54.746Z,27.7
2017-05-08T09:13:49.928Z,27.7
2017-05-08T09:14:55.617Z,27.7
2017-05-08T09:16:00.293Z,27.7
2017-05-08T09:16:58.408Z,27.7
2017-05-08T09:17:57.600Z,27.7
2017-05-08T09:18:55.193Z,27.6
2017-05-08T09:20:03.809Z,27.6
2017-05-08T09:20:51.788Z,27.6
2017-05-08T09:21:59.669Z,27.5
2017-05-08T09:24:00.638Z,27.5
2017-05-08T09:24:57.214Z,27.5
2017-05-08T09:25:53.970Z,27.5
2017-05-08T09:26:49.985Z,27.5
2017-05-08T09:28:51.992Z,27.5
2017-05-08T09:29:51.164Z,27.5
2017-05-08T09:30:50.781Z,27.6
2017-05-08T09:31:52.921Z,27.6
2017-05-08T09:32:52.546Z,27.6
2017-05-08T09:33:52.922Z,27.6
2017-05-08T09:34:52.183Z,27.6
2017-05-08T09:35:51.699Z,27.7
2017-05-08T09:36:50.349Z,27.7
2017-05-08T09:37:53.420Z,27.7
2017-05-08T09:38:52.907Z,27.8
2017-05-08T09:39:50.115Z,27.8
2017-05-08T09:40:53.876Z,27.8
2017-05-08T09:41:54.938Z,27.8
2017-05-08T09:42:52.749Z,27.8
2017-05-08T09:43:50.605Z,27.8
2017-05-08T09:44:54.119Z,27.8
2017-05-08T09:45:53.507Z,27.8
2017-05-08T09:46:51.380Z,27.8
2017-05-08T09:47:51.660Z,27.8
2017-05-08T09:48:53.963Z,27.8
2017-05-08T09:49:55.112Z,27.7
2017-05-08T09:50:56.382Z,27.7
2017-05-08T09:51:55.895Z,27.7
2017-05-08T09:52:54.354Z,27.7
2017-05-08T09:53:55.542Z,27.7
2017-05-08T09:54:52.790Z,27.6
2017-05-08T09:55:50.319Z,27.6
2017-05-08T09:56:54.655Z,27.6
2017-05-08T09:57:55.039Z,27.5
2017-05-08T10:06:58.687Z,27.3
2017-05-08T10:07:56.520Z,27.3
2017-05-08T10:08:54.685Z,27.4
2017-05-08T10:09:55.808Z,27.4
2017-05-08T10:10:55.588Z,27.4
2017-05-08T10:11:51.978Z,27.4
2017-05-08T10:12:53.615Z,27.4
2017-05-08T10:13:53.728Z,27.4
2017-05-08T10:14:55.694Z,27.4
2017-05-08T10:15:53.639Z,27.3
2017-05-08T10:16:53.859Z,27.3
2017-05-08T10:17:51.862Z,27.3
2017-05-08T10:18:52.396Z,27.3
2017-05-08T10:19:54.476Z,27.3
2017-05-08T10:20:51.334Z,27.3
2017-05-08T10:21:55.808Z,27.3
2017-05-08T10:22:54.171Z,27.2
2017-05-08T10:23:53.792Z,27.2
2017-05-08T10:24:57.529Z,27.2
2017-05-08T10:25:57.585Z,27.2
2017-05-08T10:28:00.736Z,27.2
2017-05-08T10:29:00.008Z,27.2
2017-05-08T10:36:04.357Z,27.3
2017-05-08T10:36:56.965Z,27.3
2017-05-08T10:38:00.526Z,27.4
2017-05-08T10:38:56.461Z,27.4
2017-05-08T10:39:57.755Z,27.4
2017-05-08T10:40:58.922Z,27.3
2017-05-08T10:41:54.739Z,27.4
2017-05-08T10:42:53.183Z,27.4
2017-05-08T10:43:53.051Z,27.4
2017-05-08T10:44:52.583Z,27.4
2017-05-08T10:45:59.400Z,27.4
2017-05-08T10:46:55.337Z,27.4
2017-05-08T10:47:55.028Z,27.3
2017-05-08T10:48:53.857Z,27.4
2017-05-08T10:49:52.695Z,27.4
2017-05-08T10:50:54.554Z,27.4
2017-05-08T10:51:53.289Z,27.4
2017-05-08T10:52:54.562Z,27.4
2017-05-08T10:53:56.585Z,27.4
2017-05-08T10:54:58.764Z,27.4
2017-05-08T10:55:54.280Z,27.4
2017-05-08T10:56:57.503Z,27.5
2017-05-08T10:57:58.734Z,27.6
2017-05-08T10:58:55.269Z,27.7
2017-05-08T10:59:55.259Z,27.7
2017-05-08T11:00:56.436Z,27.7
2017-05-08T11:01:52.727Z,27.7
2017-05-08T11:02:53.435Z,27.7
2017-05-08T11:04:03.438Z,27.7
2017-05-08T11:04:54.805Z,27.8
2017-05-08T11:05:55.936Z,27.8
2017-05-08T11:06:56.122Z,27.7
2017-05-08T11:07:56.231Z,27.7
2017-05-08T11:08:55.972Z,27.7
2017-05-08T11:09:55.469Z,27.7
2017-05-08T11:10:57.653Z,27.7
2017-05-08T11:11:54.917Z,27.7
2017-05-08T11:12:55.810Z,27.7
2017-05-08T11:13:56.633Z,27.7
2017-05-08T11:14:57.981Z,27.7
2017-05-08T11:15:55.580Z,27.7
2017-05-08T11:16:57.709Z,27.8
2017-05-08T11:17:55.535Z,27.8
2017-05-08T11:18:56.830Z,27.9
2017-05-08T11:19:54.888Z,28.1
2017-05-08T11:20:56.367Z,28.2
2017-05-08T11:21:55.291Z,28.2
2017-05-08T11:22:55.608Z,28.3
2017-05-08T11:23:55.327Z,28.3
2017-05-08T11:24:56.568Z,28.4
2017-05-08T11:25:55.891Z,28.5
2017-05-08T11:26:59.394Z,28.6
2017-05-08T11:28:00.814Z,28.7
2017-05-08T11:29:03.576Z,28.8
2017-05-08T11:29:56.092Z,28.9
2017-05-08T11:30:57.312Z,28.9
2017-05-08T11:31:59.219Z,29
2017-05-08T11:33:00.038Z,29
2017-05-08T11:33:55.700Z,29.1
2017-05-08T11:34:56.521Z,29.2
2017-05-08T11:35:59.911Z,29.1
2017-05-08T11:36:56.414Z,29.2
2017-05-08T11:37:56.574Z,29.1
2017-05-08T11:38:57.280Z,29.2
2017-05-08T11:39:56.801Z,29.3
2017-05-08T11:40:55.545Z,29.3
2017-05-08T11:41:56.305Z,29.3
2017-05-08T11:42:59.396Z,29.3
2017-05-08T11:43:55.566Z,29.4
2017-05-08T11:44:59.784Z,29.5
2017-05-08T11:45:56.828Z,29.6
2017-05-08T11:46:56.969Z,29.7
2017-05-08T11:47:59.264Z,29.6
2017-05-08T11:48:59.549Z,29.6
2017-05-08T11:49:59.588Z,29.6
2017-05-08T11:50:57.525Z,29.6
2017-05-08T11:51:57.106Z,29.7
2017-05-08T11:52:58.733Z,29.7
2017-05-08T11:53:55.758Z,29.6
2017-05-08T11:54:57.830Z,29.6
2017-05-08T11:55:56.273Z,29.6
2017-05-08T11:56:58.832Z,29.6
2017-05-08T11:58:00.516Z,29.7
2017-05-08T11:58:58.415Z,29.7
2017-05-08T11:59:56.788Z,29.7
2017-05-08T12:00:57.454Z,29.8
2017-05-08T12:01:58.624Z,29.8
2017-05-08T12:03:01.235Z,29.8
2017-05-08T12:03:59.643Z,29.8
2017-05-08T12:04:57.854Z,29.8
2017-05-08T12:06:00.203Z,29.8
2017-05-08T12:06:58.258Z,29.7
2017-05-08T12:08:01.725Z,29.7
2017-05-08T12:09:00.247Z,29.7
2017-05-08T12:09:59.440Z,29.7
2017-05-08T12:10:58.245Z,29.7
2017-05-08T12:11:56.836Z,29.7
2017-05-08T12:12:58.097Z,29.7
2017-05-08T12:13:59.648Z,29.8
2017-05-08T12:15:01.584Z,29.8
2017-05-08T12:16:03.914Z,29.7
2017-05-08T12:16:59.158Z,29.6
2017-05-08T12:18:02.542Z,29.7
2017-05-08T12:19:02.451Z,29.7
2017-05-08T12:20:00.227Z,29.6
2017-05-08T12:21:02.597Z,29.6
2017-05-08T12:22:01.659Z,29.6
2017-05-08T12:23:01.442Z,29.5
2017-05-08T12:23:58.131Z,29.4
2017-05-08T12:24:56.862Z,29.5
2017-05-08T12:25:59.289Z,29.4
2017-05-08T12:26:59.533Z,29.4
2017-05-08T12:27:59.932Z,29.4
2017-05-08T12:29:00.865Z,29.4
2017-05-08T12:30:02.393Z,29.4
2017-05-08T12:31:02.492Z,29.4
2017-05-08T12:32:00.364Z,29.3
2017-05-08T12:33:11.462Z,29.3
2017-05-08T12:34:02.890Z,29.2
2017-05-08T12:35:01.669Z,29.2
2017-05-08T12:36:01.126Z,29.2
2017-05-08T12:37:00.250Z,29.1
2017-05-08T12:37:59.830Z,29
2017-05-08T12:39:05.478Z,29
2017-05-08T12:40:02.163Z,28.9
2017-05-08T12:41:02.218Z,28.9
2017-05-08T12:42:02.867Z,29
2017-05-08T12:43:02.825Z,29
2017-05-08T12:44:01.098Z,29.1
2017-05-08T12:45:00.499Z,29
2017-05-08T12:46:00.686Z,29
2017-05-08T12:47:02.416Z,29
2017-05-08T12:47:59.876Z,29
2017-05-08T12:49:02.781Z,29
2017-05-08T12:50:01.650Z,29
2017-05-08T12:51:03.842Z,29
2017-05-08T12:52:02.465Z,29
2017-05-08T12:53:03.922Z,29.1
2017-05-08T12:54:06.148Z,29.1
2017-05-08T12:55:05.014Z,29.1
2017-05-08T12:56:07.711Z,29.1
2017-05-08T12:57:03.126Z,29.1
2017-05-08T12:58:02.395Z,29.2
2017-05-08T12:59:00.068Z,29.2
2017-05-08T13:00:02.998Z,29.2
2017-05-08T13:01:06.754Z,29.2
2017-05-08T13:02:04.925Z,29.2
2017-05-08T13:03:06.354Z,29.3
2017-05-08T13:04:03.282Z,29.3
2017-05-08T13:05:01.019Z,29.4
2017-05-08T13:05:59.746Z,29.5
2017-05-08T13:07:00.786Z,29.6
2017-05-08T13:08:01.627Z,29.7
2017-05-08T13:09:05.898Z,29.8
2017-05-08T13:10:03.965Z,29.8
2017-05-08T13:11:01.901Z,29.8
2017-05-08T13:12:04.097Z,29.7
2017-05-08T13:13:05.679Z,29.6
2017-05-08T13:14:04.403Z,29.5
2017-05-08T13:15:03.879Z,29.5
2017-05-08T13:16:05.017Z,29.5
2017-05-08T13:17:03.948Z,29.5
2017-05-08T13:18:08.911Z,29.5
2017-05-08T13:19:03.361Z,29.5
2017-05-08T13:20:03.435Z,29.5
2017-05-08T13:21:02.163Z,29.5
2017-05-08T13:22:00.839Z,29.5
2017-05-08T13:23:04.145Z,29.5
2017-05-08T13:24:08.162Z,29.5
2017-05-08T13:25:08.116Z,29.5
2017-05-08T13:26:04.134Z,29.6
2017-05-08T13:27:04.800Z,29.6
2017-05-08T13:28:04.930Z,29.6
2017-05-08T13:29:03.027Z,29.5
2017-05-08T13:30:07.919Z,29.6
2017-05-08T13:31:04.369Z,29.6
2017-05-08T13:32:07.900Z,29.6
2017-05-08T13:33:04.695Z,29.6
2017-05-08T13:34:02.326Z,29.7
2017-05-08T13:35:02.469Z,29.7
2017-05-08T13:36:03.800Z,29.7
2017-05-08T13:37:07.398Z,29.7
2017-05-08T13:38:07.772Z,29.6
2017-05-08T13:39:05.102Z,29.6
2017-05-08T13:40:10.670Z,29.6
2017-05-08T13:41:03.847Z,29.6
2017-05-08T13:42:07.379Z,29.5
2017-05-08T13:43:03.221Z,29.5
2017-05-08T13:44:09.999Z,29.6
2017-05-08T13:45:01.509Z,29.6
2017-05-08T13:46:02.946Z,29.6
2017-05-08T13:47:03.738Z,29.6
2017-05-08T13:48:04.047Z,29.7
2017-05-08T13:49:06.762Z,29.7